createdAt,value
2022-12-08T00:02:26.893Z,19.80
2022-12-08T00:05:15.556Z,19.80
2022-12-08T00:08:05.793Z,19.90
2022-12-08T00:10:49.050Z,20.10
2022-12-08T00:13:21.220Z,20.20
2022-12-08T00:16:00.015Z,20.30
2022-12-08T00:18:32.998Z,20.30
2022-12-08T00:21:03.983Z,20.40
2022-12-08T00:23:34.207Z,20.50
2022-12-08T00:26:08.855Z,20.60
2022-12-08T00:28:39.846Z,20.60
2022-12-08T00:31:14.880Z,20.60
2022-12-08T00:33:45.344Z,20.60
2022-12-08T00:36:19.008Z,20.60
2022-12-08T00:38:50.318Z,20.50
2022-12-08T00:41:46.555Z,20.50
2022-12-08T00:44:21.056Z,20.40
2022-12-08T00:46:53.475Z,20.50
2022-12-08T00:49:26.402Z,20.70
2022-12-08T00:51:56.838Z,20.80
2022-12-08T00:54:27.422Z,20.70
2022-12-08T00:56:57.791Z,20.80
2022-12-08T00:59:28.117Z,21.00
2022-12-08T01:01:58.535Z,21.10
2022-12-08T01:04:31.543Z,21.10
2022-12-08T01:07:03.349Z,21.10
2022-12-08T01:09:36.589Z,21.00
2022-12-08T01:12:09.595Z,21.00
2022-12-08T01:14:40.313Z,21.00
2022-12-08T01:17:11.429Z,21.10
2022-12-08T01:19:41.892Z,21.20
2022-12-08T01:22:12.357Z,21.30
2022-12-08T01:24:43.121Z,21.40
2022-12-08T01:27:15.162Z,21.40
2022-12-08T01:29:49.434Z,21.50
2022-12-08T01:32:21.301Z,21.60
2022-12-08T01:34:51.610Z,21.60
2022-12-08T01:37:23.311Z,21.60
2022-12-08T01:39:53.959Z,21.70
2022-12-08T01:42:26.340Z,21.60
2022-12-08T01:45:00.993Z,21.70
2022-12-08T01:47:43.224Z,21.60
2022-12-08T01:50:15.473Z,21.70
2022-12-08T01:52:52.365Z,21.80
2022-12-08T01:55:27.527Z,21.90
2022-12-08T01:58:03.426Z,22.00
2022-12-08T02:00:34.180Z,22.20
2022-12-08T02:03:09.155Z,22.10
2022-12-08T02:05:42.834Z,22.20
2022-12-08T02:08:15.739Z,22.20
2022-12-08T02:10:48.055Z,22.30
2022-12-08T02:13:21.839Z,22.10
2022-12-08T02:16:15.583Z,22.00
2022-12-08T02:19:30.865Z,21.80
2022-12-08T02:22:18.364Z,21.80
2022-12-08T02:24:48.816Z,21.80
2022-12-08T02:27:36.749Z,21.80
2022-12-08T02:30:27.609Z,21.90
2022-12-08T02:33:51.269Z,21.90
2022-12-08T02:36:40.045Z,21.80
2022-12-08T02:39:32.700Z,21.80
2022-12-08T02:42:40.624Z,21.70
2022-12-08T02:45:34.324Z,21.70
2022-12-08T02:48:43.913Z,21.60
2022-12-08T02:51:14.266Z,21.80
2022-12-08T02:53:46.180Z,21.70
2022-12-08T02:56:31.572Z,21.70
2022-12-08T02:59:29.128Z,21.80
2022-12-08T03:02:26.119Z,21.80
2022-12-08T03:05:33.993Z,21.90
2022-12-08T03:08:34.005Z,22.00
2022-12-08T03:11:15.224Z,21.90
2022-12-08T03:13:55.109Z,22.00
2022-12-08T03:16:31.221Z,21.90
2022-12-08T03:19:18.055Z,22.10
2022-12-08T03:21:53.063Z,22.00
2022-12-08T03:24:25.521Z,22.10
2022-12-08T03:27:06.012Z,22.00
2022-12-08T03:29:37.795Z,22.00
2022-12-08T03:32:26.270Z,21.90
2022-12-08T03:35:01.058Z,21.80
2022-12-08T03:37:33.220Z,21.80
2022-12-08T03:40:06.122Z,21.70
2022-12-08T03:42:39.704Z,21.70
2022-12-08T03:45:10.921Z,21.60
2022-12-08T03:47:41.712Z,21.40
2022-12-08T03:50:12.454Z,21.40
2022-12-08T03:52:55.846Z,21.50
2022-12-08T03:55:28.567Z,21.30
2022-12-08T03:58:17.669Z,21.40
2022-12-08T04:00:50.511Z,21.40
2022-12-08T04:03:26.350Z,21.40
2022-12-08T04:05:56.642Z,21.40
2022-12-08T04:08:35.858Z,21.40
2022-12-08T04:11:08.182Z,21.30
2022-12-08T04:13:40.704Z,21.30
2022-12-08T04:16:11.976Z,21.40
2022-12-08T04:18:42.263Z,21.40
2022-12-08T04:21:12.741Z,21.40
2022-12-08T04:23:43.270Z,21.40
2022-12-08T04:26:15.145Z,21.40
2022-12-08T04:28:45.532Z,21.30
2022-12-08T04:31:16.932Z,21.30
2022-12-08T04:33:49.709Z,21.10
2022-12-08T04:36:21.022Z,21.00
2022-12-08T04:38:54.832Z,20.90
2022-12-08T04:41:25.257Z,20.90
2022-12-08T04:43:55.641Z,20.80
2022-12-08T04:46:26.180Z,20.80
2022-12-08T04:48:56.500Z,20.80
2022-12-08T04:51:27.057Z,20.80
2022-12-08T04:53:57.314Z,20.80
2022-12-08T04:56:33.154Z,20.80
2022-12-08T04:59:09.352Z,20.70
2022-12-08T05:01:42.481Z,20.70
2022-12-08T05:04:17.085Z,20.70
2022-12-08T05:07:08.326Z,20.70
2022-12-08T05:09:38.595Z,20.70
2022-12-08T05:15:16.602Z,20.70
2022-12-08T05:17:51.052Z,20.60
2022-12-08T05:23:11.457Z,20.60
2022-12-08T05:25:41.817Z,20.70
2022-12-08T05:28:40.176Z,20.70
2022-12-08T05:31:04.000Z,20.90
2022-12-08T05:33:45.935Z,21.00
2022-12-08T05:36:24.976Z,21.00
2022-12-08T05:41:58.076Z,20.80
2022-12-08T05:45:05.141Z,20.70
2022-12-08T05:48:28.738Z,20.60
2022-12-08T05:51:18.945Z,20.50
2022-12-08T05:57:10.968Z,20.20
2022-12-08T06:03:00.726Z,20.20
2022-12-08T06:06:09.857Z,20.20
2022-12-08T06:08:49.083Z,20.20
2022-12-08T06:11:49.228Z,20.10
2022-12-08T06:14:29.102Z,20.10
2022-12-08T06:17:39.295Z,20.00
2022-12-08T06:20:32.776Z,20.10
2022-12-08T06:23:05.415Z,20.10
2022-12-08T06:25:47.780Z,20.20
2022-12-08T06:28:18.087Z,20.20
2022-12-08T06:30:48.825Z,20.20
2022-12-08T06:33:19.104Z,20.10
2022-12-08T06:35:49.412Z,20.00
2022-12-08T06:38:22.486Z,19.80
2022-12-08T06:41:00.156Z,19.70
2022-12-08T06:43:30.710Z,19.70
2022-12-08T06:46:02.874Z,19.70
2022-12-08T06:48:33.175Z,19.70
2022-12-08T06:51:25.162Z,19.70
2022-12-08T06:53:55.531Z,19.60
2022-12-08T06:56:30.403Z,19.70
2022-12-08T06:59:03.475Z,19.60
2022-12-08T07:01:35.544Z,19.50
2022-12-08T07:04:05.883Z,19.40
2022-12-08T07:06:36.552Z,19.40
2022-12-08T07:09:18.532Z,19.30
2022-12-08T07:11:48.962Z,19.20
2022-12-08T07:14:24.973Z,19.10
2022-12-08T07:17:00.513Z,19.00
2022-12-08T07:19:39.232Z,18.90
2022-12-08T07:22:10.057Z,18.80
2022-12-08T07:24:40.345Z,18.80
2022-12-08T07:27:10.647Z,18.80
2022-12-08T07:29:40.931Z,18.70
2022-12-08T07:32:11.607Z,18.50
2022-12-08T07:34:41.821Z,18.50
2022-12-08T07:37:12.011Z,18.40
2022-12-08T07:39:42.293Z,18.30
2022-12-08T07:42:12.646Z,18.30
2022-12-08T07:44:42.864Z,18.30
2022-12-08T07:47:13.596Z,18.20
2022-12-08T07:49:43.888Z,18.10
2022-12-08T07:52:14.153Z,18.10
2022-12-08T07:54:45.701Z,18.10
2022-12-08T07:57:18.047Z,18.10
2022-12-08T07:59:48.363Z,18.10
2022-12-08T08:02:25.403Z,18.00
2022-12-08T08:04:56.907Z,18.00
2022-12-08T08:07:27.386Z,18.00
2022-12-08T08:09:58.252Z,18.00
2022-12-08T08:12:32.045Z,18.10
2022-12-08T08:15:05.649Z,18.10
2022-12-08T08:17:38.931Z,18.10
2022-12-08T08:20:11.593Z,18.10
2022-12-08T08:22:42.856Z,18.10
2022-12-08T08:25:13.635Z,18.10
2022-12-08T08:27:46.197Z,18.00
2022-12-08T08:30:21.030Z,18.00
2022-12-08T08:32:55.934Z,18.00
2022-12-08T08:35:29.831Z,17.90
2022-12-08T08:38:00.776Z,17.90
2022-12-08T08:40:32.722Z,17.80
2022-12-08T08:43:04.755Z,17.80
2022-12-08T08:45:36.828Z,17.70
2022-12-08T08:48:08.133Z,17.60
2022-12-08T08:50:38.826Z,17.50
2022-12-08T08:53:09.455Z,17.40
2022-12-08T08:55:42.909Z,17.40
2022-12-08T08:58:13.732Z,17.30
2022-12-08T09:00:45.417Z,17.30
2022-12-08T09:03:16.727Z,17.30
2022-12-08T09:05:48.653Z,17.20
2022-12-08T09:08:30.528Z,17.20
2022-12-08T09:11:01.798Z,17.20
2022-12-08T09:13:33.093Z,17.10
2022-12-08T09:16:09.291Z,17.10
2022-12-08T09:18:40.486Z,17.00
2022-12-08T09:21:18.122Z,17.00
2022-12-08T09:23:48.691Z,16.90
2022-12-08T09:26:19.050Z,16.80
2022-12-08T09:28:49.313Z,16.70
2022-12-08T09:31:20.831Z,16.70
2022-12-08T09:33:55.035Z,16.60
2022-12-08T09:36:25.304Z,16.50
2022-12-08T09:38:56.377Z,16.40
2022-12-08T09:41:46.428Z,16.40
2022-12-08T09:44:48.363Z,16.20
2022-12-08T09:47:36.087Z,16.20
2022-12-08T09:50:32.293Z,16.10
2022-12-08T09:53:14.965Z,16.00
2022-12-08T09:56:00.495Z,15.90
2022-12-08T09:59:11.541Z,15.90
2022-12-08T10:01:43.733Z,15.80
2022-12-08T10:04:39.764Z,15.70
2022-12-08T10:07:17.316Z,15.60
2022-12-08T10:09:53.541Z,15.50
2022-12-08T10:12:42.009Z,15.50
2022-12-08T10:15:36.599Z,15.50
2022-12-08T10:18:32.266Z,15.40
2022-12-08T10:21:22.196Z,15.30
2022-12-08T10:23:57.515Z,15.30
2022-12-08T10:26:27.894Z,15.20
2022-12-08T10:29:03.155Z,15.20
2022-12-08T10:31:34.732Z,15.00
2022-12-08T10:34:19.352Z,15.00
2022-12-08T10:36:59.202Z,15.00
2022-12-08T10:39:47.673Z,14.90
2022-12-08T10:42:17.951Z,14.90
2022-12-08T10:45:03.000Z,14.90
2022-12-08T10:47:44.772Z,14.70
2022-12-08T10:50:16.210Z,14.70
2022-12-08T10:52:46.623Z,14.70
2022-12-08T10:55:21.468Z,14.60
2022-12-08T10:57:52.082Z,14.50
2022-12-08T11:00:30.059Z,14.40
2022-12-08T11:03:06.184Z,14.30
2022-12-08T11:05:39.529Z,14.20
2022-12-08T11:08:15.261Z,14.10
2022-12-08T11:10:48.862Z,14.10
2022-12-08T11:13:31.580Z,14.00
2022-12-08T11:16:02.024Z,13.90
2022-12-08T11:18:41.387Z,13.90
2022-12-08T11:21:18.800Z,13.80
2022-12-08T11:23:53.132Z,13.80
2022-12-08T11:26:39.404Z,13.70
2022-12-08T11:29:15.559Z,13.70
2022-12-08T11:32:07.975Z,13.60
2022-12-08T11:34:46.577Z,13.60
2022-12-08T11:37:46.056Z,13.50
2022-12-08T11:40:35.015Z,13.50
2022-12-08T11:43:26.711Z,13.50
2022-12-08T11:46:03.399Z,13.50
2022-12-08T11:48:42.808Z,13.40
2022-12-08T11:51:19.261Z,13.40
2022-12-08T11:53:52.432Z,13.30
2022-12-08T11:56:30.003Z,13.30
2022-12-08T11:59:12.778Z,13.20
2022-12-08T12:01:43.686Z,13.20
2022-12-08T12:04:27.217Z,13.20
2022-12-08T12:07:11.103Z,13.20
2022-12-08T12:10:09.400Z,13.10
2022-12-08T12:13:01.798Z,13.10
2022-12-08T12:16:02.780Z,13.10
2022-12-08T12:18:47.584Z,13.00
2022-12-08T12:21:28.967Z,13.00
2022-12-08T12:24:06.227Z,12.90
2022-12-08T12:26:52.120Z,12.90
2022-12-08T12:29:25.911Z,12.80
2022-12-08T12:32:08.850Z,12.70
2022-12-08T12:34:57.608Z,12.60
2022-12-08T12:37:44.165Z,12.50
2022-12-08T12:40:30.878Z,12.40
2022-12-08T12:43:01.569Z,12.30
2022-12-08T12:45:36.485Z,12.20
2022-12-08T12:48:07.148Z,12.20
2022-12-08T12:50:40.111Z,12.10
2022-12-08T12:53:22.276Z,12.20
2022-12-08T12:55:59.931Z,12.10
2022-12-08T12:58:33.352Z,12.10
2022-12-08T13:01:16.481Z,12.10
2022-12-08T13:04:05.849Z,12.10
2022-12-08T13:06:50.570Z,12.00
2022-12-08T13:09:35.100Z,12.00
2022-12-08T13:12:22.287Z,12.00
2022-12-08T13:15:00.940Z,12.00
2022-12-08T13:17:37.551Z,11.90
2022-12-08T13:20:10.087Z,11.90
2022-12-08T13:23:16.613Z,11.80
2022-12-08T13:25:47.387Z,11.70
2022-12-08T13:28:28.077Z,11.70
2022-12-08T13:31:06.446Z,11.70
2022-12-08T13:33:46.526Z,11.70
2022-12-08T13:37:02.820Z,11.70
2022-12-08T13:39:52.490Z,11.70
2022-12-08T13:42:35.709Z,11.70
2022-12-08T13:45:24.518Z,11.70
2022-12-08T13:48:26.576Z,11.60
2022-12-08T13:57:32.820Z,11.50
2022-12-08T14:00:18.556Z,11.40
2022-12-08T14:02:55.094Z,11.40
2022-12-08T14:06:02.789Z,11.20
2022-12-08T14:09:00.116Z,11.20
2022-12-08T14:11:41.044Z,11.20
2022-12-08T14:14:32.725Z,11.10
2022-12-08T14:17:18.393Z,11.00
2022-12-08T14:20:08.650Z,11.00
2022-12-08T14:22:43.717Z,10.90
2022-12-08T14:25:22.499Z,10.90
2022-12-08T14:27:59.349Z,10.90
2022-12-08T14:30:35.832Z,10.80
2022-12-08T14:33:07.958Z,10.80
2022-12-08T14:35:40.900Z,10.80
2022-12-08T14:38:31.868Z,10.80
2022-12-08T14:41:11.511Z,10.80
2022-12-08T14:43:42.600Z,10.80
2022-12-08T14:46:26.126Z,10.70
2022-12-08T14:48:58.740Z,10.70
2022-12-08T14:51:33.918Z,10.60
2022-12-08T14:54:19.344Z,10.60
2022-12-08T14:56:56.860Z,10.50
2022-12-08T14:59:36.759Z,10.50
2022-12-08T15:02:28.732Z,10.40
2022-12-08T15:05:02.810Z,10.40
2022-12-08T15:07:54.910Z,10.30
2022-12-08T15:10:31.423Z,10.20
2022-12-08T15:13:14.460Z,10.20
2022-12-08T15:15:52.767Z,10.20
2022-12-08T15:18:40.930Z,10.20
2022-12-08T15:21:14.954Z,10.20
2022-12-08T15:23:52.722Z,10.20
2022-12-08T15:26:25.801Z,10.20
2022-12-08T15:28:57.568Z,10.20
2022-12-08T15:31:28.284Z,10.20
2022-12-08T15:33:58.648Z,10.20
2022-12-08T15:36:29.588Z,10.10
2022-12-08T15:39:00.115Z,10.10
2022-12-08T15:41:30.317Z,10.10
2022-12-08T15:44:00.974Z,10.10
2022-12-08T15:46:32.611Z,10.00
2022-12-08T15:49:03.337Z,10.00
2022-12-08T15:51:38.068Z,10.00
2022-12-08T15:54:08.758Z,9.90
2022-12-08T15:57:10.579Z,9.90
2022-12-08T15:59:34.289Z,9.90
2022-12-08T16:02:04.686Z,9.80
2022-12-08T16:05:25.183Z,9.80
2022-12-08T16:07:39.504Z,9.80
2022-12-08T16:10:13.098Z,9.70
2022-12-08T16:15:59.630Z,9.60
2022-12-08T16:18:37.262Z,9.60
2022-12-08T16:21:22.748Z,9.50
2022-12-08T16:24:01.268Z,9.40
2022-12-08T16:29:28.913Z,9.40
2022-12-08T16:31:59.224Z,9.30
2022-12-08T16:34:30.084Z,9.30
2022-12-08T16:37:01.699Z,9.20
2022-12-08T16:39:33.855Z,9.10
2022-12-08T16:42:22.220Z,9.00
2022-12-08T16:44:52.856Z,9.00
2022-12-08T16:47:27.448Z,8.90
2022-12-08T16:49:57.732Z,8.80
2022-12-08T16:52:28.356Z,8.80
2022-12-08T16:54:58.889Z,8.70
2022-12-08T16:57:29.799Z,8.70
2022-12-08T17:00:00.571Z,8.70
2022-12-08T17:02:33.543Z,8.70
2022-12-08T17:05:04.551Z,8.60
2022-12-08T17:07:37.973Z,8.60
2022-12-08T17:10:10.206Z,8.50
2022-12-08T17:12:42.117Z,8.50
2022-12-08T17:15:16.770Z,8.50
2022-12-08T17:17:47.267Z,8.40
2022-12-08T17:20:28.756Z,8.40
2022-12-08T17:23:00.914Z,8.30
2022-12-08T17:25:31.357Z,8.30
2022-12-08T17:28:01.884Z,8.20
2022-12-08T17:30:32.185Z,8.20
2022-12-08T17:33:03.513Z,8.20
2022-12-08T17:35:34.960Z,8.20
2022-12-08T17:38:05.834Z,8.20
2022-12-08T17:40:36.043Z,8.20
2022-12-08T17:43:06.577Z,8.20
2022-12-08T17:45:36.963Z,8.20
2022-12-08T17:48:07.571Z,8.20
2022-12-08T17:50:44.987Z,8.00
2022-12-08T17:53:15.225Z,8.00
2022-12-08T17:55:46.112Z,8.00
2022-12-08T17:58:16.347Z,8.00
2022-12-08T18:00:46.634Z,7.90
2022-12-08T18:03:17.243Z,7.90
2022-12-08T18:05:48.609Z,7.90
2022-12-08T18:08:23.634Z,7.80
2022-12-08T18:10:55.200Z,7.80
2022-12-08T18:13:26.088Z,7.70
2022-12-08T18:15:57.012Z,7.70
2022-12-08T18:18:28.835Z,7.70
2022-12-08T18:20:59.553Z,7.70
2022-12-08T18:23:31.458Z,7.70
2022-12-08T18:26:02.055Z,7.60
2022-12-08T18:28:32.666Z,7.60
2022-12-08T18:31:03.104Z,7.60
2022-12-08T18:33:33.540Z,7.50
2022-12-08T18:36:05.026Z,7.50
2022-12-08T18:38:37.676Z,7.50
2022-12-08T18:41:16.377Z,7.40
2022-12-08T18:43:48.337Z,7.50
2022-12-08T18:46:19.296Z,7.50
2022-12-08T18:48:52.458Z,7.50
2022-12-08T18:51:25.179Z,7.40
2022-12-08T18:53:56.014Z,7.40
2022-12-08T18:56:35.015Z,7.40
2022-12-08T18:59:08.276Z,7.40
2022-12-08T19:01:40.799Z,7.40
2022-12-08T19:04:28.783Z,7.40
2022-12-08T19:07:00.335Z,7.40
2022-12-08T19:09:31.252Z,7.40
2022-12-08T19:12:03.583Z,7.40
2022-12-08T19:14:35.697Z,7.50
2022-12-08T19:17:05.977Z,7.60
2022-12-08T19:19:37.325Z,7.60
2022-12-08T19:22:08.924Z,7.60
2022-12-08T19:24:40.006Z,7.70
2022-12-08T19:27:11.566Z,7.70
2022-12-08T19:29:42.022Z,7.70
2022-12-08T19:32:12.280Z,7.80
2022-12-08T19:34:43.028Z,7.80
2022-12-08T19:37:14.761Z,7.90
2022-12-08T19:40:03.118Z,8.00
2022-12-08T19:42:51.258Z,8.10
2022-12-08T19:45:24.296Z,8.20
2022-12-08T19:47:54.651Z,8.30
2022-12-08T19:50:40.114Z,8.40
2022-12-08T19:53:16.508Z,8.40
2022-12-08T19:55:48.330Z,8.60
2022-12-08T19:58:21.311Z,8.70
2022-12-08T20:00:52.772Z,8.70
2022-12-08T20:03:25.739Z,8.80
2022-12-08T20:05:58.213Z,8.90
2022-12-08T20:08:30.074Z,9.00
2022-12-08T20:11:01.539Z,9.00
2022-12-08T20:13:44.121Z,9.10
2022-12-08T20:16:14.904Z,9.10
2022-12-08T20:18:45.863Z,9.20
2022-12-08T20:21:16.330Z,9.20
2022-12-08T20:23:47.219Z,9.30
2022-12-08T20:26:18.575Z,9.30
2022-12-08T20:28:48.998Z,9.40
2022-12-08T20:31:31.417Z,9.40
2022-12-08T20:34:03.130Z,9.50
2022-12-08T20:36:33.981Z,9.50
2022-12-08T20:39:04.211Z,9.60
2022-12-08T20:41:39.163Z,9.60
2022-12-08T20:44:09.803Z,9.70
2022-12-08T20:46:43.752Z,9.70
2022-12-08T20:49:18.195Z,9.90
2022-12-08T20:51:51.278Z,10.00
2022-12-08T20:54:21.514Z,10.20
2022-12-08T20:56:52.016Z,10.40
2022-12-08T20:59:22.273Z,10.50
2022-12-08T21:01:54.196Z,10.50
2022-12-08T21:04:25.682Z,10.60
2022-12-08T21:06:56.392Z,10.50
2022-12-08T21:09:26.928Z,10.60
2022-12-08T21:11:57.777Z,10.70
2022-12-08T21:14:28.490Z,10.80
2022-12-08T21:16:59.109Z,10.90
2022-12-08T21:19:29.543Z,11.00
2022-12-08T21:22:00.047Z,11.10
2022-12-08T21:24:34.029Z,11.40
2022-12-08T21:27:05.310Z,11.70
2022-12-08T21:29:35.845Z,11.80
2022-12-08T21:32:06.634Z,12.00
2022-12-08T21:34:37.352Z,12.10
2022-12-08T21:37:07.729Z,12.50
2022-12-08T21:39:39.416Z,12.80
2022-12-08T21:42:42.162Z,13.20
2022-12-08T21:45:23.594Z,13.60
2022-12-08T21:47:54.451Z,13.90
2022-12-08T21:50:25.324Z,14.20
2022-12-08T21:52:55.655Z,14.50
2022-12-08T21:55:26.650Z,14.70
2022-12-08T21:57:58.820Z,14.70
2022-12-08T22:00:29.325Z,14.80
2022-12-08T22:02:59.887Z,14.80
2022-12-08T22:05:30.246Z,14.90
2022-12-08T22:08:01.601Z,15.20
2022-12-08T22:10:32.586Z,15.40
2022-12-08T22:13:03.360Z,15.60
2022-12-08T22:15:35.018Z,15.80
2022-12-08T22:18:05.820Z,15.90
2022-12-08T22:20:42.297Z,16.20
2022-12-08T22:23:14.127Z,16.20
2022-12-08T22:25:44.458Z,16.20
2022-12-08T22:28:15.559Z,16.30
2022-12-08T22:30:47.639Z,16.50
2022-12-08T22:33:18.269Z,16.60
2022-12-08T22:36:06.296Z,16.60
2022-12-08T22:38:40.210Z,16.60
2022-12-08T22:41:11.203Z,16.80
2022-12-08T22:43:42.043Z,16.80
2022-12-08T22:46:21.444Z,16.90
2022-12-08T22:48:52.509Z,16.80
2022-12-08T22:51:22.992Z,16.70
2022-12-08T22:53:54.334Z,16.70
2022-12-08T22:56:24.639Z,16.80
2022-12-08T22:58:55.661Z,16.80
2022-12-08T23:01:28.483Z,16.90
2022-12-08T23:04:00.382Z,17.00
2022-12-08T23:06:32.264Z,17.00
2022-12-08T23:09:03.200Z,17.00
2022-12-08T23:11:34.846Z,17.00
2022-12-08T23:14:05.671Z,17.10
2022-12-08T23:16:36.275Z,17.20
2022-12-08T23:19:06.769Z,17.30
2022-12-08T23:21:37.950Z,17.40
2022-12-08T23:24:09.074Z,17.60
2022-12-08T23:26:39.503Z,17.60
2022-12-08T23:29:10.008Z,17.60
2022-12-08T23:31:42.790Z,17.60
2022-12-08T23:34:14.319Z,17.60
2022-12-08T23:36:44.857Z,17.50
2022-12-08T23:39:15.714Z,17.70
2022-12-08T23:41:46.764Z,17.80
2022-12-08T23:44:17.273Z,17.90
2022-12-08T23:46:47.839Z,17.80
2022-12-08T23:49:18.294Z,17.90
2022-12-08T23:51:49.008Z,18.00
2022-12-08T23:54:19.974Z,18.20
2022-12-08T23:56:50.720Z,18.20
2022-12-08T23:59:21.707Z,18.30
